Latest Weather Observations for Coffs Harbour

IDN60801

Issued at 10:34 am EDT Friday 19 December 2014 (issued every 30 minutes, with the page automatically refreshed every 10 minutes)

About weather observations | Map of weather stations | Latest weather observations for NSW | Other Formats
Station Details ID: 059040 Name: COFFS HARBOUR MO Lat: -30.31 Lon: 153.12 Height: 5.0 m
Data from the previous 72 hours. | See also: Recent months at Coffs Harbour
Date/Time
EDT
Temp
°C
App
Temp
°C
Dew
Point
Rel
Hum
%
Delta-T
°C
Wind Press
QNH
hPa
Press
MSL
hPa
Rain
since 9 am
mm
Dir
 
Spd
km/h
Gust
km/h
Spd
kts
Gust
kts
19/09:30am 26.5 26.8 17.0 56 5.9 E 11 13 6 7 1009.3 - 0.0
19/09:00am 25.3 26.0 18.0 64 4.6 ESE 11 15 6 8 1009.3 1009.4 36.4
19/08:30am 26.8 26.9 15.5 50 6.9 ESE 9 13 5 7 1009.1 - 36.2
19/08:00am 25.1 26.6 15.7 56 5.7 ESE 2 7 1 4 1009.0 - 36.2
19/07:30am 22.9 25.2 17.6 72 3.3 WNW 2 6 1 3 1008.7 - 36.2
19/07:00am 21.0 24.6 19.8 93 0.8 CALM 0 0 0 0 1008.4 - 36.2
19/06:30am 19.1 21.2 18.9 99 0.1 W 6 9 3 5 1008.2 - 36.2
19/06:00am 18.6 19.5 18.4 99 0.1 NW 11 13 6 7 1007.9 1008.0 36.2
19/05:30am 19.4 19.7 18.7 96 0.4 NW 15 19 8 10 1007.7 - 36.2
19/05:00am 20.2 21.0 19.9 98 0.2 NW 15 19 8 10 1007.5 - 36.2
19/04:30am 20.9 22.0 20.4 97 0.3 NW 15 19 8 10 1007.4 - 36.2
19/04:00am 21.9 22.6 20.5 92 0.9 NW 17 24 9 13 1007.3 - 36.2
19/03:30am 22.2 23.0 21.4 95 0.5 NW 19 28 10 15 1007.3 - 36.2
19/03:00am 22.4 22.8 21.0 92 0.9 NNW 20 28 11 15 1007.9 1008.0 36.2
19/02:30am 22.8 23.0 21.4 92 0.9 NNW 22 33 12 18 1008.2 - 36.2
19/02:00am 23.1 22.2 21.4 90 1.1 NNW 28 37 15 20 1008.2 - 36.2
19/01:30am 23.3 24.0 21.6 90 1.1 NW 20 32 11 17 1008.0 - 36.2
19/01:00am 23.1 23.1 21.7 92 0.9 NNW 24 35 13 19 1008.3 - 36.2
19/12:30am 23.0 23.8 22.5 97 0.3 NNW 22 28 12 15 1008.3 - 36.2
19/12:00am 22.7 23.5 22.5 99 0.1 NNW 22 30 12 16 1008.6 1008.7 36.2
 
Date/Time
EDT
Temp
°C
App
Temp
°C
Dew
Point
Rel
Hum
%
Delta-T
°C
Wind Press
QNH
hPa
Press
MSL
hPa
Rain
since 9 am
mm
Dir
 
Spd
km/h
Gust
km/h
Spd
kts
Gust
kts
18/11:30pm 22.6 24.7 22.4 99 0.1 WNW 15 24 8 13 1009.3 - 36.2
18/11:00pm 22.5 23.6 22.3 99 0.1 NW 20 28 11 15 1009.6 - 36.2
18/10:30pm 22.1 23.3 22.1 100 0.0 NW 19 28 10 15 1009.4 - 36.2
18/10:10pm 21.8 20.6 21.6 99 0.1 NW 30 35 16 19 1009.5 - 36.0
18/10:00pm 22.6 25.8 22.4 99 0.1 NW 9 15 5 8 1009.0 - 36.0
18/09:30pm 22.5 23.2 22.3 99 0.1 NNE 22 32 12 17 1008.6 - 35.8
18/09:00pm 21.8 25.1 21.8 100 0.0 WNW 7 15 4 8 1008.2 1008.3 35.8
18/08:30pm 21.6 24.0 21.6 100 0.0 N 11 17 6 9 1007.7 - 35.8
18/08:00pm 21.6 24.0 21.6 100 0.0 NNW 11 13 6 7 1007.6 - 35.8
18/07:30pm 21.5 23.5 21.5 100 0.0 N 13 13 7 7 1007.7 - 35.8
18/07:00pm 21.5 23.1 21.5 100 0.0 NE 15 20 8 11 1007.5 - 35.8
18/06:30pm 21.1 22.5 21.1 100 0.0 NE 15 19 8 10 1007.2 - 35.8
18/06:10pm 21.2 24.4 21.2 100 0.0 S 6 13 3 7 1007.7 - 35.8
18/06:01pm 21.0 24.1 21.0 100 0.0 SW 6 13 3 7 1007.9 - 35.4
18/06:00pm 21.0 24.1 21.0 100 0.0 SW 6 11 3 6 1008.0 1008.1 35.4
18/05:46pm 21.0 22.4 21.0 100 0.0 WSW 15 26 8 14 1008.7 - 34.4
18/05:37pm 21.2 16.8 21.2 100 0.0 WSW 46 65 25 35 1010.1 - 26.8
18/05:35pm 21.2 16.4 21.2 100 0.0 WSW 48 65 26 35 1009.5 - 24.6
18/05:30pm 21.3 15.4 21.3 100 0.0 WSW 54 65 29 35 1007.5 - 19.8
18/05:14pm 21.6 11.6 21.4 99 0.1 WSW 76 98 41 53 1005.7 - 4.6
18/05:12pm 22.7 18.3 21.9 95 0.5 WSW 48 82 26 44 1005.8 - 1.2
18/05:10pm 24.0 20.1 22.3 90 1.1 WSW 46 82 25 44 1006.4 - 0.2
18/05:06pm 25.7 22.7 22.8 84 2.0 WSW 43 61 23 33 1006.7 - 0.0
18/05:04pm 25.9 24.6 23.8 88 1.4 WSW 37 61 20 33 1006.8 - 0.0
18/05:03pm 25.8 25.6 24.4 92 1.0 WSW 33 46 18 25 1006.8 - 0.0
18/05:00pm 25.3 28.1 25.0 98 0.2 N 19 28 10 15 1005.7 - 0.0
18/04:55pm 25.2 27.1 25.0 99 0.1 NNE 24 33 13 18 1004.3 - 0.0
18/04:30pm 25.3 26.2 24.6 96 0.5 NNE 28 37 15 20 1003.4 - 0.0
18/04:00pm 25.4 24.9 24.5 95 0.6 NE 35 48 19 26 1003.6 - 0.0
18/03:30pm 26.0 23.7 24.0 89 1.4 NNE 43 57 23 31 1003.2 - 0.0
18/03:00pm 26.8 24.4 23.9 84 2.0 NNE 43 56 23 30 1003.6 1003.7 0.0
18/02:39pm 27.2 25.6 23.9 82 2.3 NNE 39 57 21 31 1004.3 - 0.0
18/02:30pm 27.1 26.8 24.2 84 2.0 NE 33 41 18 22 1004.6 - 0.0
18/02:00pm 27.1 26.9 24.0 83 2.1 NE 32 39 17 21 1005.7 - 0.0
18/01:30pm 26.1 25.5 23.4 85 1.8 NE 32 43 17 23 1006.2 - 0.0
18/01:00pm 26.1 25.0 23.4 85 1.8 NE 35 50 19 27 1006.7 - 0.0
18/12:30pm 25.8 24.3 22.7 83 2.1 NE 35 50 19 27 1007.3 - 0.0
18/12:00pm 25.4 24.0 22.9 86 1.7 NE 35 48 19 26 1008.0 1008.1 0.0
18/11:30am 25.4 24.0 22.9 86 1.7 NE 35 44 19 24 1008.3 - 0.0
18/11:00am 25.1 23.7 22.2 84 1.9 NE 33 44 18 24 1008.3 - 0.0
18/10:30am 25.8 26.1 22.9 84 2.0 NNE 26 35 14 19 1008.6 - 0.0
18/10:00am 24.6 23.5 21.7 84 1.9 NNE 30 37 16 20 1008.6 - 0.0
18/09:30am 24.1 26.1 22.9 93 0.8 NNE 17 22 9 12 1008.7 - 0.0
18/09:00am 24.4 26.7 22.1 87 1.5 NE 13 20 7 11 1009.0 1009.1 0.4
18/08:30am 24.3 26.9 22.6 90 1.1 NE 13 20 7 11 1009.5 - 0.2
18/08:00am 22.9 25.6 22.1 95 0.5 NNE 11 15 6 8 1009.5 - 0.2
18/07:30am 22.6 25.8 22.4 99 0.1 ENE 9 15 5 8 1009.3 - 0.2
18/07:00am 21.7 25.0 21.5 99 0.1 N 6 7 3 4 1009.1 - 0.2
18/06:30am 20.9 23.9 20.9 100 0.0 NNE 6 9 3 5 1009.7 - 0.2
18/06:00am 19.9 22.3 19.7 99 0.1 ENE 6 9 3 5 1009.8 1009.9 0.2
18/05:30am 20.1 23.8 19.9 99 0.1 CALM 0 0 0 0 1009.9 - 0.2
18/05:00am 20.4 24.2 20.2 99 0.1 CALM 0 2 0 1 1009.8 - 0.2
18/04:30am 21.0 23.4 20.8 99 0.1 NW 9 13 5 7 1009.9 - 0.2
18/04:00am 20.6 23.2 20.4 99 0.1 NE 7 9 4 5 1009.3 - 0.2
18/03:30am 20.9 25.0 20.7 99 0.1 CALM 0 0 0 0 1009.6 - 0.2
18/03:00am 21.0 23.7 20.7 98 0.2 N 7 9 4 5 1009.2 1009.3 0.2
18/02:30am 21.1 23.3 20.4 96 0.5 SSW 9 13 5 7 1009.6 - 0.2
18/02:00am 21.7 23.4 20.9 95 0.5 SW 13 17 7 9 1010.0 - 0.2
18/01:54am 21.7 22.6 20.9 95 0.5 SW 17 24 9 13 1010.0 - 0.2
18/01:35am 22.0 23.3 21.7 98 0.2 S 17 22 9 12 1010.0 - 0.2
18/01:30am 22.0 23.7 21.7 98 0.2 S 15 20 8 11 1009.8 - 0.2
18/01:03am 22.2 25.4 21.7 97 0.3 SSW 7 15 4 8 1009.9 - 0.2
18/01:00am 22.2 26.1 21.9 98 0.2 SW 4 11 2 6 1009.9 - 0.2
18/12:30am 21.7 22.9 21.5 99 0.1 NW 17 20 9 11 1010.8 - 0.2
18/12:26am 21.6 22.8 21.4 99 0.1 WNW 17 20 9 11 1010.8 - 0.2
18/12:00am 21.4 24.3 21.1 98 0.2 SSW 7 13 4 7 1009.2 1009.3 0.2
 
Date/Time
EDT
Temp
°C
App
Temp
°C
Dew
Point
Rel
Hum
%
Delta-T
°C
Wind Press
QNH
hPa
Press
MSL
hPa
Rain
since 9 am
mm
Dir
 
Spd
km/h
Gust
km/h
Spd
kts
Gust
kts
17/11:30pm 21.6 23.4 21.1 97 0.3 N 13 15 7 8 1009.0 - 0.2
17/11:00pm 21.7 23.4 21.0 96 0.5 WSW 13 17 7 9 1010.3 - 0.2
17/10:30pm 22.2 25.1 21.0 93 0.8 N 7 13 4 7 1009.8 - 0.2
17/10:00pm 22.1 22.9 20.6 91 1.0 WSW 17 24 9 13 1010.0 - 0.2
17/09:30pm 21.8 23.7 20.6 93 0.8 WSW 11 15 6 8 1009.9 - 0.2
17/09:00pm 21.4 23.4 20.7 96 0.5 SSW 11 15 6 8 1010.0 1010.1 0.2
17/08:44pm 21.7 24.3 20.5 93 0.8 SW 7 13 4 7 1009.9 - 0.2
17/08:30pm 22.3 21.6 20.2 88 1.4 SW 24 32 13 17 1010.2 - 0.2
17/08:28pm 22.4 21.2 20.1 87 1.5 SW 26 32 14 17 1010.2 - 0.2
17/08:00pm 22.8 20.4 20.0 84 1.8 SSW 32 41 17 22 1009.1 - 0.0
17/07:30pm 22.7 20.3 20.0 85 1.7 SSW 32 41 17 22 1008.6 - 0.0
17/07:00pm 23.1 22.5 20.4 85 1.7 SW 24 35 13 19 1008.1 - 0.0
17/06:30pm 23.5 21.7 20.4 83 2.0 SSW 30 37 16 20 1007.1 - 0.0
17/06:00pm 23.8 22.0 20.3 81 2.3 SSW 30 39 16 21 1006.7 1006.8 0.0
17/05:30pm 24.1 22.5 20.8 82 2.2 SSW 30 39 16 21 1006.4 - 0.0
17/05:00pm 24.2 23.1 21.1 83 2.0 SSW 28 35 15 19 1005.9 - 0.0
17/04:30pm 25.2 24.1 21.7 81 2.3 SSW 30 39 16 21 1005.4 - 0.0
17/04:05pm 25.6 24.3 22.1 81 2.3 SSW 32 41 17 22 1005.5 - 0.0
17/04:00pm 25.4 24.4 21.9 81 2.3 SSW 30 41 16 22 1005.5 - 0.0
17/03:59pm 25.4 24.4 21.9 81 2.3 SSW 30 41 16 22 1005.4 - 0.0
17/03:30pm 25.2 24.4 22.3 84 1.9 SSW 30 37 16 20 1005.6 - 0.0
17/03:22pm 26.0 24.8 22.3 80 2.5 SSW 32 39 17 21 1005.5 - 0.0
17/03:00pm 26.7 25.6 22.8 79 2.6 SSW 33 43 18 23 1005.2 1005.3 0.0
17/02:30pm 27.6 27.2 23.0 76 3.1 SSW 30 37 16 20 1004.4 - 0.0
17/02:00pm 29.9 29.3 22.6 65 5.0 S 30 41 16 22 1003.5 - 0.0
17/01:48pm 29.7 29.5 22.7 66 4.8 S 28 43 15 23 1003.0 - 0.0
17/01:30pm 31.8 33.8 23.6 62 5.7 NNE 19 24 10 13 1002.4 - 0.0
17/01:00pm 32.5 34.4 23.4 58 6.3 NNE 19 24 10 13 1002.4 - 0.0
17/12:30pm 31.3 33.0 22.3 58 6.1 ENE 17 22 9 12 1002.6 - 0.0
17/12:00pm 31.5 33.3 21.9 56 6.5 ENE 15 19 8 10 1002.8 1002.9 0.0
17/11:30am 33.0 35.2 21.8 51 7.6 ENE 13 19 7 10 1002.9 - 0.0
17/11:00am 31.9 33.8 21.4 53 7.1 ENE 13 15 7 8 1002.9 - 0.0
17/10:30am 31.9 33.9 20.8 51 7.4 E 11 15 6 8 1002.9 - 0.0
17/10:00am 31.6 32.7 19.6 49 7.9 ESE 13 15 7 8 1003.0 - 0.0
17/09:30am 32.0 33.9 20.6 51 7.6 SSE 11 15 6 8 1003.1 - 0.0
17/09:00am 31.0 32.7 19.4 50 7.6 NW 9 15 5 8 1003.1 1003.2 3.6
17/08:30am 29.3 30.7 19.6 56 6.3 NNW 11 17 6 9 1003.2 - 3.6
17/08:00am 28.2 29.5 19.4 59 5.7 NNW 11 15 6 8 1003.3 - 3.6
17/07:30am 26.7 28.3 19.1 63 4.9 NNW 9 13 5 7 1003.0 - 3.6
17/07:00am 25.5 26.1 18.7 66 4.3 NNW 13 17 7 9 1002.8 - 3.6
17/06:30am 24.2 24.1 18.8 72 3.4 NNW 17 24 9 13 1002.5 - 3.6
17/06:00am 23.4 22.5 18.1 72 3.3 NNW 20 30 11 16 1002.3 1002.4 3.6
17/05:30am 23.8 21.8 18.4 72 3.4 NW 26 33 14 18 1001.9 - 3.6
17/05:00am 23.5 21.0 18.8 75 3.0 NNW 30 39 16 21 1002.0 - 3.6
17/04:30am 23.5 23.0 19.2 77 2.7 N 20 30 11 16 1002.3 - 3.6
17/04:00am 23.6 23.9 19.5 78 2.6 NW 17 20 9 11 1001.9 - 3.6
17/03:30am 23.5 21.0 20.2 82 2.1 NW 33 44 18 24 1001.8 - 3.6
17/03:00am 23.2 19.7 20.5 85 1.8 NW 39 59 21 32 1002.2 1002.3 3.6
17/02:34am 23.1 19.2 20.4 85 1.7 NNW 41 59 22 32 1002.5 - 3.6
17/02:30am 23.1 18.9 20.6 86 1.6 NNW 43 57 23 31 1002.6 - 3.6
17/02:09am 23.1 19.6 20.4 85 1.7 NNW 39 57 21 31 1002.8 - 3.6
17/02:00am 23.1 20.4 20.4 85 1.7 NNW 35 50 19 27 1003.0 - 3.6
17/01:30am 23.1 21.7 20.4 85 1.7 NW 28 39 15 21 1003.2 - 3.6
17/01:10am 22.6 20.9 20.5 88 1.4 NNW 30 35 16 19 1003.9 - 3.6
17/01:00am 22.6 24.4 20.3 87 1.5 NNW 11 17 6 9 1004.1 - 3.6
17/12:30am 22.3 22.0 21.1 93 0.8 N 24 32 13 17 1005.1 - 3.6
17/12:00am 22.5 22.8 21.5 94 0.7 NNE 22 33 12 18 1005.2 1005.3 3.6
 
Date/Time
EDT
Temp
°C
App
Temp
°C
Dew
Point
Rel
Hum
%
Delta-T
°C
Wind Press
QNH
hPa
Press
MSL
hPa
Rain
since 9 am
mm
Dir
 
Spd
km/h
Gust
km/h
Spd
kts
Gust
kts
16/11:30pm 22.6 25.1 21.8 95 0.5 NE 11 15 6 8 1005.5 - 3.6
16/11:00pm 22.4 23.5 21.9 97 0.3 N 19 24 10 13 1005.3 - 3.4
16/10:30pm 22.1 21.5 21.9 99 0.1 N 28 35 15 19 1006.1 - 3.4
16/10:00pm 22.0 20.5 21.8 99 0.1 NNE 32 41 17 22 1006.5 - 3.4
16/09:30pm 22.1 22.6 21.9 99 0.1 NNE 22 30 12 16 1006.8 - 3.4
16/09:00pm 21.9 22.7 21.7 99 0.1 NE 20 30 11 16 1006.7 1006.8 3.4
16/08:41pm 21.9 22.7 21.7 99 0.1 NE 20 28 11 15 1006.2 - 3.4
16/08:30pm 21.8 22.7 21.5 98 0.2 NE 19 22 10 12 1006.6 - 3.4
16/08:14pm 23.4 24.5 20.5 84 1.9 WNW 15 19 8 10 1007.7 - 0.0
16/08:12pm 23.4 24.5 20.5 84 1.9 NW 15 17 8 9 1007.2 - 0.0
16/08:00pm 23.6 23.7 20.3 82 2.1 NNE 20 30 11 16 1005.0 - 0.0
16/07:30pm 23.8 23.9 20.3 81 2.3 NNE 20 28 11 15 1004.4 - 0.0
16/07:00pm 24.0 23.2 20.1 79 2.5 NNE 24 30 13 16 1004.0 - 0.0
16/06:30pm 24.1 22.6 20.2 79 2.5 NNE 28 35 15 19 1004.0 - 0.0
16/06:00pm 24.5 22.6 20.2 77 2.8 NNE 30 39 16 21 1003.7 1003.8 0.0
16/05:30pm 24.9 22.2 20.4 76 2.9 NNE 35 43 19 23 1003.6 - 0.0
16/05:00pm 24.9 21.8 20.4 76 2.9 NNE 37 52 20 28 1003.9 - 0.0
16/04:30pm 24.6 21.3 20.1 76 2.9 NNE 37 48 20 26 1003.7 - 0.0
16/04:00pm 25.2 22.4 20.2 74 3.3 NNE 35 50 19 27 1005.2 - 0.0
16/03:30pm 25.3 22.0 20.1 73 3.4 NNE 37 50 20 27 1005.3 - 0.0
16/03:00pm 25.4 22.4 19.8 71 3.6 NNE 35 46 19 25 1005.5 1005.6 0.0
16/02:30pm 25.3 21.5 19.7 71 3.6 NE 39 52 21 28 1005.6 - 0.0
16/02:00pm 25.5 21.9 19.4 69 3.9 NE 37 48 20 26 1006.1 - 0.0
16/01:30pm 25.5 21.9 19.4 69 3.9 NE 37 46 20 25 1006.4 - 0.0
16/01:00pm 26.4 23.8 19.8 67 4.3 NNE 33 43 18 23 1006.8 - 0.0
16/12:30pm 25.9 22.9 19.1 66 4.4 NE 33 44 18 24 1006.8 - 0.0
16/12:00pm 27.2 24.8 17.4 55 6.2 NNE 26 39 14 21 1007.3 1007.4 0.0
16/11:30am 27.0 25.5 17.8 57 5.8 N 22 30 12 16 1007.8 - 0.0
16/11:00am 26.0 24.4 17.4 59 5.4 N 22 32 12 17 1008.2 - 0.0

Other Formats:

Comma delimited format used in spreadsheet applications
http://www.bom.gov.au/fwo/IDN60801/IDN60801.94791.axf

JavaScript Object Notation format (JSON) in row-major order
http://www.bom.gov.au/fwo/IDN60801/IDN60801.94791.json